Time;durP1;ratioP1;P1;durP2;ratioP2;P2;SDS_P1;SDS_P2;PMS_P1;PMS_P2;Temp;Humidity;BMP_temperature;BMP_pressure;BME280_temperature;BME280_humidity;BME280_pressure;Samples;Min_cycle;Max_cycle;Signal;HPM_P1;HPM_P2
2022/01/09 07:37:31;;;;;;;378.50;145.03;;;-0.10;99.90;;;;;;5070874;28;20391;-52
2022/01/09 07:39:58;;;;;;;299.57;121.67;;;-0.20;99.90;;;;;;5070689;28;20334;-57
2022/01/09 07:42:24;;;;;;;368.70;147.23;;;0.00;99.90;;;;;;5070737;28;20130;-59
2022/01/09 07:44:50;;;;;;;276.87;118.10;;;0.20;99.90;;;;;;5070309;28;20450;-53
2022/01/09 07:47:16;;;;;;;341.57;148.60;;;0.40;99.90;;;;;;5070653;28;20107;-60
2022/01/09 07:49:42;;;;;;;350.10;157.97;;;0.70;99.90;;;;;;5070533;28;20031;-49
2022/01/09 07:52:07;;;;;;;300.13;138.10;;;1.20;99.90;;;;;;5070222;28;20436;-55
2022/01/09 07:54:33;;;;;;;264.40;125.00;;;1.70;99.90;;;;;;5070447;28;20082;-54
2022/01/09 07:56:59;;;;;;;248.50;118.72;;;2.50;99.90;;;;;;5070217;28;20037;-50
2022/01/09 07:59:24;;;;;;;205.38;103.40;;;3.00;99.90;;;;;;5069876;28;20470;-60
2022/01/09 08:01:50;;;;;;;183.30;91.32;;;4.30;99.90;;;;;;5070491;28;20032;-54
2022/01/09 08:04:16;;;;;;;174.38;85.40;;;5.70;99.90;;;;;;5070105;28;20051;-55
2022/01/09 08:06:42;;;;;;;144.68;73.30;;;7.00;94.30;;;;;;5069951;28;20493;-60
2022/01/09 08:09:08;;;;;;;130.27;69.90;;;7.90;79.70;;;;;;5069999;28;20029;-48
2022/01/09 08:11:34;;;;;;;139.63;69.97;;;8.00;72.00;;;;;;5069997;28;20070;-51
2022/01/09 08:14:00;;;;;;;139.18;71.97;;;8.80;68.00;;;;;;5069652;28;20021;-49
2022/01/09 08:16:25;;;;;;;127.45;67.72;;;9.20;62.60;;;;;;5069780;28;20401;-47
2022/01/09 08:18:52;;;;;;;189.80;96.95;;;8.80;63.10;;;;;;5069867;28;20055;-56
2022/01/09 08:21:20;;;;;;;203.57;99.95;;;8.30;63.00;;;;;;5069960;28;20083;-57
2022/01/09 08:23:50;;;;;;;239.43;118.80;;;8.20;65.10;;;;;;5069824;28;20051;-59
2022/01/09 08:26:17;;;;;;;236.95;121.30;;;8.20;65.40;;;;;;5069955;28;20028;-53
2022/01/09 08:28:46;;;;;;;243.23;127.13;;;8.00;65.70;;;;;;5069349;28;20025;-51
2022/01/09 08:31:12;;;;;;;256.35;133.35;;;7.70;66.40;;;;;;5069796;28;20025;-61
2022/01/09 08:33:38;;;;;;;262.17;132.25;;;7.30;69.70;;;;;;5069505;28;20509;-55
2022/01/09 08:36:04;;;;;;;243.88;128.18;;;7.20;71.90;;;;;;5069121;28;20055;-60
2022/01/09 08:38:30;;;;;;;223.73;123.00;;;6.90;73.00;;;;;;5069676;28;20466;-51
2022/01/09 08:40:56;;;;;;;216.35;117.43;;;6.70;77.60;;;;;;5069323;28;20021;-52
2022/01/09 08:43:23;;;;;;;199.13;107.22;;;6.60;78.30;;;;;;5069290;28;20048;-57
2022/01/09 08:45:48;;;;;;;165.73;88.78;;;7.00;77.80;;;;;;5069339;28;20021;-64
2022/01/09 08:48:15;;;;;;;236.77;115.80;;;6.80;72.80;;;;;;5059436;28;20428;-61
2022/01/09 08:50:41;;;;;;;231.45;121.95;;;6.60;75.70;;;;;;5055961;28;20021;-56
2022/01/09 08:53:07;;;;;;;328.30;166.40;;;6.70;77.30;;;;;;5055841;28;20032;-58
2022/01/09 08:55:32;;;;;;;257.88;138.10;;;6.70;73.90;;;;;;5055948;28;20029;-59
2022/01/09 08:57:59;;;;;;;289.17;150.18;;;6.70;76.60;;;;;;5055604;28;20459;-60
2022/01/09 09:00:25;;;;;;;252.77;131.70;;;6.90;75.80;;;;;;5055680;28;20051;-55
2022/01/09 09:02:51;;;;;;;253.82;136.63;;;6.80;74.60;;;;;;5055980;28;20367;-58
2022/01/09 09:05:18;;;;;;;239.10;126.95;;;7.10;78.60;;;;;;5055736;28;20107;-56
2022/01/09 09:07:44;;;;;;;184.85;99.57;;;7.60;73.00;;;;;;5055643;28;20083;-52
2022/01/09 09:10:10;;;;;;;158.63;88.82;;;7.90;69.20;;;;;;5055651;28;20021;-59
2022/01/09 09:12:36;;;;;;;138.00;75.90;;;7.70;67.40;;;;;;5055490;28;20025;-55
2022/01/09 09:15:04;;;;;;;117.45;63.05;;;7.50;68.30;;;;;;5055514;28;20068;-53
2022/01/09 09:17:30;;;;;;;106.35;59.03;;;7.40;68.80;;;;;;5055470;28;20040;-59
2022/01/09 09:19:56;;;;;;;103.63;57.78;;;7.30;69.10;;;;;;5055468;28;20087;-61
2022/01/09 09:22:22;;;;;;;98.93;54.63;;;7.30;70.70;;;;;;5055266;28;20017;-59
2022/01/09 09:24:49;;;;;;;102.40;57.17;;;7.40;71.90;;;;;;5055444;28;20079;-56
2022/01/09 09:27:15;;;;;;;93.68;53.72;;;7.60;77.70;;;;;;5055468;28;20055;-48
2022/01/09 09:29:42;;;;;;;82.03;48.47;;;7.90;72.00;;;;;;5055506;28;20033;-54
2022/01/09 09:32:08;;;;;;;72.13;43.78;;;8.30;68.20;;;;;;5055275;28;20021;-63
2022/01/09 09:34:36;;;;;;;76.85;44.75;;;8.60;65.10;;;;;;5055204;28;20017;-58
2022/01/09 09:37:01;;;;;;;104.63;54.00;;;8.70;64.20;;;;;;5054800;28;20079;-59
2022/01/09 09:39:27;;;;;;;124.07;62.58;;;8.80;62.60;;;;;;5055273;28;20037;-61
2022/01/09 09:41:53;;;;;;;118.53;63.28;;;8.80;63.70;;;;;;5055012;28;20029;-53
2022/01/09 09:44:19;;;;;;;103.32;54.45;;;8.90;65.40;;;;;;5055099;28;20025;-58
2022/01/09 09:46:49;;;;;;;77.38;44.72;;;8.90;62.50;;;;;;5055151;28;20025;-54
2022/01/09 09:49:16;;;;;;;72.60;43.22;;;9.00;62.40;;;;;;5055204;28;20104;-59
2022/01/09 09:51:42;;;;;;;65.00;38.25;;;9.10;62.40;;;;;;5055200;28;20379;-58
2022/01/09 09:54:08;;;;;;;47.88;30.20;;;9.30;62.50;;;;;;5054712;28;20075;-55
2022/01/09 09:56:34;;;;;;;47.88;29.25;;;9.60;65.20;;;;;;5054486;28;20486;-50
2022/01/09 09:59:01;;;;;;;40.15;27.30;;;10.00;61.80;;;;;;5053693;28;20103;-60
2022/01/09 10:01:30;;;;;;;42.05;27.23;;;10.20;58.90;;;;;;5054626;28;20101;-52
2022/01/09 10:04:04;;;;;;;46.00;27.42;;;10.20;60.50;;;;;;5054712;28;20033;-60
2022/01/09 10:06:35;;;;;;;41.33;26.17;;;10.40;57.30;;;;;;5054558;28;20025;-58
2022/01/09 10:09:06;;;;;;;47.28;28.42;;;10.30;58.70;;;;;;5054565;28;20067;-56
2022/01/09 10:11:45;;;;;;;42.67;27.73;;;10.50;56.30;;;;;;5054230;28;20036;-49
2022/01/09 10:14:22;;;;;;;49.80;30.85;;;10.20;55.80;;;;;;5054721;28;20025;-66
2022/01/09 10:17:06;;;;;;;50.00;31.27;;;9.90;58.40;;;;;;5054419;28;20025;-63
2022/01/09 10:19:48;;;;;;;45.90;29.88;;;10.10;61.70;;;;;;5054674;28;20025;-59
2022/01/09 10:22:45;;;;;;;50.85;30.48;;;10.40;58.10;;;;;;5054232;28;20139;-53
2022/01/09 10:25:30;;;;;;;61.78;35.05;;;10.60;59.40;;;;;;5053459;28;20045;-57
2022/01/09 10:28:01;;;;;;;47.40;31.20;;;10.70;53.70;;;;;;5054210;28;20494;-60
2022/01/09 10:30:47;;;;;;;84.72;46.65;;;10.60;55.60;;;;;;5054156;28;20025;-61
2022/01/09 10:33:16;;;;;;;78.30;46.78;;;10.70;54.90;;;;;;5054170;28;20467;-58
2022/01/09 10:35:44;;;;;;;70.95;43.50;;;10.70;56.50;;;;;;5053845;28;20388;-59
2022/01/09 10:38:29;;;;;;;68.45;43.25;;;11.00;55.30;;;;;;5053722;28;20025;-59
2022/01/09 10:41:03;;;;;;;61.45;38.22;;;11.10;55.70;;;;;;5054201;28;20103;-54
2022/01/09 10:43:40;;;;;;;;;;;11.30;55.00;;;;;;5054249;28;20083;-60
2022/01/09 10:46:06;;;;;;;61.15;38.72;;;11.40;53.60;;;;;;5054077;28;19904;-60
2022/01/09 10:48:39;;;;;;;58.78;37.28;;;11.50;53.20;;;;;;5053831;28;20079;-59
2022/01/09 10:51:09;;;;;;;63.65;37.63;;;11.70;53.30;;;;;;5053718;28;20516;-52
2022/01/09 10:53:42;;;;;;;60.58;35.80;;;11.80;55.00;;;;;;5053789;28;20025;-55
2022/01/09 10:56:20;;;;;;;57.40;34.95;;;11.80;53.00;;;;;;5053497;28;20029;-51
2022/01/09 10:58:49;;;;;;;54.20;35.15;;;11.70;55.50;;;;;;5053616;28;20029;-56
2022/01/09 11:01:16;;;;;;;50.13;32.95;;;11.70;53.90;;;;;;5053483;28;20083;-51
2022/01/09 11:03:45;;;;;;;46.75;29.60;;;11.60;51.30;;;;;;5053453;28;20083;-56
2022/01/09 11:06:12;;;;;;;43.40;29.23;;;11.80;51.60;;;;;;5053748;28;20041;-63
2022/01/09 11:08:39;;;;;;;54.03;34.42;;;11.80;52.00;;;;;;5053484;28;20021;-57
2022/01/09 11:11:14;;;;;;;47.92;31.73;;;11.90;51.60;;;;;;5053185;28;20021;-60
2022/01/09 11:13:44;;;;;;;56.67;34.30;;;11.90;50.30;;;;;;5053505;28;20458;-57
2022/01/09 11:18:59;;;;;;;57.97;36.33;;;11.30;51.60;;;;;;5053600;28;20032;-57
2022/01/09 11:21:24;;;;;;;67.70;40.55;;;11.30;52.10;;;;;;5053188;28;20052;-61
2022/01/09 11:24:11;;;;;;;63.47;39.90;;;11.60;53.10;;;;;;5053176;28;20021;-61
2022/01/09 11:26:49;;;;;;;77.63;47.08;;;11.70;52.50;;;;;;5053103;28;20051;-55
2022/01/09 11:29:22;;;;;;;72.45;44.55;;;11.50;51.90;;;;;;5053480;28;20021;-55
2022/01/09 11:32:34;;;;;;;66.72;42.72;;;11.70;51.50;;;;;;5053431;28;20071;-63
2022/01/09 11:35:29;;;;;;;74.80;46.95;;;11.80;51.80;;;;;;5052506;28;20393;-62
2022/01/09 11:38:17;;;;;;;84.18;51.47;;;12.00;51.50;;;;;;5052980;28;20044;-55
2022/01/09 11:40:43;;;;;;;72.70;47.17;;;12.40;50.40;;;;;;5053420;28;20511;-60
2022/01/09 11:43:17;;;;;;;76.57;47.33;;;12.60;49.90;;;;;;5053099;28;20100;-62
2022/01/09 11:45:42;;;;;;;68.00;45.50;;;12.60;49.80;;;;;;5053045;28;20040;-62
2022/01/09 11:48:09;;;;;;;68.03;44.35;;;12.70;49.50;;;;;;5053304;28;20471;-55
2022/01/09 11:50:36;;;;;;;73.82;47.15;;;12.80;49.80;;;;;;5052986;28;20025;-60
2022/01/09 11:53:03;;;;;;;62.75;42.78;;;12.60;50.80;;;;;;5052721;28;20137;-54
2022/01/09 11:55:43;;;;;;;74.75;46.53;;;12.50;49.90;;;;;;5053039;28;20028;-58
2022/01/09 11:58:09;;;;;;;89.05;52.92;;;12.60;50.60;;;;;;5052896;28;20032;-58
2022/01/09 12:00:40;;;;;;;65.65;44.35;;;12.60;50.90;;;;;;5053022;28;20013;-60
2022/01/09 12:03:27;;;;;;;60.63;40.33;;;12.60;50.10;;;;;;5053192;28;20441;-56
2022/01/09 12:06:00;;;;;;;56.38;39.60;;;12.60;50.90;;;;;;5052906;28;20056;-48
2022/01/09 12:08:26;;;;;;;53.80;38.78;;;12.40;50.70;;;;;;5052836;28;20029;-55
2022/01/09 12:10:53;;;;;;;56.05;37.33;;;12.30;50.80;;;;;;5052719;28;20051;-61
2022/01/09 12:13:51;;;;;;;59.10;38.88;;;12.40;49.80;;;;;;5052797;28;20040;-59
2022/01/09 12:16:46;;;;;;;52.83;34.25;;;12.20;51.10;;;;;;5051688;28;20034;-57
2022/01/09 12:19:32;;;;;;;49.88;33.28;;;12.30;50.40;;;;;;5052897;28;20040;-48
2022/01/09 12:21:58;;;;;;;57.33;37.33;;;12.60;50.30;;;;;;5052390;28;20109;-58
2022/01/09 12:24:42;;;;;;;59.65;40.38;;;12.50;50.00;;;;;;5056403;28;20092;-58
2022/01/09 12:27:40;;;;;;;74.78;47.40;;;12.10;50.90;;;;;;5056491;28;20029;-62
2022/01/09 12:30:06;;;;;;;54.67;35.78;;;11.90;50.00;;;;;;5056372;28;20017;-61
2022/01/09 12:32:43;;;;;;;42.72;29.20;;;12.00;48.90;;;;;;5056469;28;20021;-62
2022/01/09 12:35:18;;;;;;;40.55;27.95;;;12.30;49.70;;;;;;5056105;28;20017;-55
2022/01/09 12:37:49;;;;;;;40.20;27.42;;;12.50;47.70;;;;;;5056271;28;20029;-60
2022/01/09 12:40:25;;;;;;;40.33;28.60;;;12.50;49.10;;;;;;5056187;28;20017;-55
2022/01/09 12:42:54;;;;;;;52.22;32.17;;;12.70;48.00;;;;;;5056135;28;20102;-61
2022/01/09 12:45:25;;;;;;;46.13;31.90;;;12.70;47.30;;;;;;5056197;28;20108;-57
2022/01/09 12:47:52;;;;;;;43.17;30.08;;;12.40;49.30;;;;;;5056305;28;20021;-54
2022/01/09 12:50:28;;;;;;;41.20;28.35;;;12.40;48.60;;;;;;5056150;28;20029;-62
2022/01/09 12:53:22;;;;;;;40.55;27.60;;;12.40;49.40;;;;;;5056173;28;20052;-63
2022/01/09 12:56:04;;;;;;;34.85;25.00;;;12.60;47.40;;;;;;5056148;28;20029;-58
2022/01/09 12:58:42;;;;;;;31.20;21.00;;;12.60;46.40;;;;;;5055922;28;20470;-54
2022/01/09 13:01:13;;;;;;;136.95;74.25;;;12.70;46.40;;;;;;5055798;28;20029;-52
2022/01/09 13:03:40;;;;;;;181.60;102.43;;;12.50;49.60;;;;;;5055572;28;20028;-61
2022/01/09 13:06:09;;;;;;;138.23;82.05;;;12.20;51.10;;;;;;5055794;28;20025;-64
2022/01/09 13:08:38;;;;;;;148.27;89.38;;;11.60;52.90;;;;;;5055650;28;20028;-51
2022/01/09 13:11:12;;;;;;;126.65;81.40;;;10.90;54.40;;;;;;5055898;28;20041;-59
2022/01/09 13:13:40;;;;;;;118.25;76.05;;;10.50;56.70;;;;;;5055660;28;20036;-61
2022/01/09 13:16:15;;;;;;;109.00;69.63;;;10.00;59.10;;;;;;5055371;28;20466;-54
2022/01/09 13:18:43;;;;;;;116.30;71.30;;;9.50;61.70;;;;;;5055393;28;20025;-55
2022/01/09 13:21:18;;;;;;;101.57;62.05;;;9.10;66.20;;;;;;5055762;28;20040;-61
2022/01/09 13:24:11;;;;;;;106.85;62.17;;;8.70;70.00;;;;;;5055485;28;20048;-52
2022/01/09 13:26:45;;;;;;;105.28;58.95;;;8.30;76.30;;;;;;5054984;28;20033;-53
2022/01/09 13:29:26;;;;;;;103.13;57.47;;;8.10;80.50;;;;;;5055303;28;20071;-56
2022/01/09 13:31:55;;;;;;;114.00;59.60;;;7.90;83.20;;;;;;5055129;28;20029;-63
2022/01/09 13:34:39;;;;;;;118.28;67.15;;;7.90;85.80;;;;;;5054899;28;20033;-62
2022/01/09 13:37:11;;;;;;;199.95;110.57;;;7.80;86.40;;;;;;5054711;28;20128;-65
2022/01/09 13:39:39;;;;;;;338.55;185.05;;;7.90;88.20;;;;;;5055395;28;20032;-52
2022/01/09 13:42:08;;;;;;;224.30;120.55;;;7.80;84.70;;;;;;5055029;28;20491;-58
2022/01/09 13:44:37;;;;;;;222.00;122.15;;;7.60;90.10;;;;;;5055204;28;20029;-51
2022/01/09 13:47:07;;;;;;;289.35;159.55;;;7.60;91.50;;;;;;5055127;28;20048;-58
2022/01/09 13:49:34;;;;;;;213.35;125.88;;;7.50;92.70;;;;;;5054974;28;20029;-56
2022/01/09 13:52:14;;;;;;;160.15;92.93;;;7.40;92.30;;;;;;5054857;28;20032;-55
2022/01/09 13:54:40;;;;;;;134.70;80.35;;;7.30;93.70;;;;;;5054959;28;20025;-55
2022/01/09 13:57:08;;;;;;;115.28;67.20;;;7.40;94.80;;;;;;5054895;28;20032;-58
2022/01/09 13:59:47;;;;;;;117.75;66.32;;;7.20;93.90;;;;;;5054741;28;20034;-54
2022/01/09 14:02:17;;;;;;;135.45;78.70;;;7.10;95.10;;;;;;5054465;28;20100;-56
2022/01/09 14:05:06;;;;;;;137.73;80.38;;;7.00;95.70;;;;;;5054607;28;20020;-54
2022/01/09 14:07:32;;;;;;;120.72;71.00;;;6.90;95.50;;;;;;5054354;28;20032;-48
2022/01/09 14:09:58;;;;;;;152.95;87.53;;;6.80;97.10;;;;;;5054817;28;20025;-46
2022/01/09 14:12:25;;;;;;;129.38;76.35;;;6.80;97.90;;;;;;5054505;28;20017;-52
2022/01/09 14:14:51;;;;;;;219.88;116.60;;;6.90;98.60;;;;;;5054634;28;20037;-59
2022/01/09 14:17:27;;;;;;;221.95;118.05;;;6.90;98.40;;;;;;5054294;28;20487;-51
2022/01/09 14:19:55;;;;;;;187.65;99.72;;;7.10;96.30;;;;;;5054302;28;20028;-54
2022/01/09 14:22:21;;;;;;;171.98;95.68;;;7.20;94.80;;;;;;5054147;28;20382;-64
2022/01/09 14:25:02;;;;;;;202.35;108.18;;;7.30;92.70;;;;;;5054261;28;20025;-51
2022/01/09 14:27:33;;;;;;;216.55;110.70;;;7.40;93.70;;;;;;5054108;28;20036;-56
2022/01/09 14:30:00;;;;;;;203.65;111.70;;;7.30;95.80;;;;;;5054157;28;20028;-58
2022/01/09 14:32:26;;;;;;;196.68;109.72;;;7.10;97.10;;;;;;5053916;28;20110;-58
2022/01/09 14:34:55;;;;;;;164.77;96.10;;;6.80;99.20;;;;;;5053985;28;20100;-52
2022/01/09 14:37:22;;;;;;;167.13;94.57;;;6.60;99.90;;;;;;5053751;28;20037;-62
2022/01/09 14:39:48;;;;;;;134.32;76.65;;;6.40;99.90;;;;;;5053981;28;20017;-51
2022/01/09 14:42:14;;;;;;;146.43;82.43;;;6.10;99.90;;;;;;5053815;28;20048;-57
2022/01/09 14:44:40;;;;;;;198.48;112.40;;;5.80;99.90;;;;;;5053871;28;20060;-64
2022/01/09 14:47:06;;;;;;;236.43;127.07;;;5.80;99.90;;;;;;5053766;28;20120;-51
2022/01/09 14:49:32;;;;;;;253.30;139.43;;;5.80;99.90;;;;;;5054010;28;20039;-57
2022/01/09 14:51:58;;;;;;;259.73;150.25;;;5.80;99.90;;;;;;5053677;28;20475;-53
2022/01/09 14:54:24;;;;;;;254.48;143.80;;;5.90;99.90;;;;;;5053993;28;20033;-58
2022/01/09 14:56:50;;;;;;;240.70;135.70;;;5.90;99.90;;;;;;5053544;28;20390;-60
2022/01/09 14:59:16;;;;;;;285.48;153.60;;;5.90;99.90;;;;;;5053387;28;20021;-53
2022/01/09 15:01:42;;;;;;;345.70;172.10;;;5.90;99.90;;;;;;5053605;28;20029;-45
2022/01/09 15:04:08;;;;;;;277.23;144.93;;;5.90;99.90;;;;;;5053945;28;20029;-47
2022/01/09 15:06:37;;;;;;;254.05;140.70;;;6.10;99.90;;;;;;5053711;28;20079;-62
2022/01/09 15:09:03;;;;;;;238.25;134.18;;;6.20;99.90;;;;;;5053468;28;20025;-51
2022/01/09 15:11:29;;;;;;;238.85;134.13;;;6.20;99.90;;;;;;5053520;28;20063;-50
2022/01/09 15:13:57;;;;;;;289.63;161.43;;;5.90;99.90;;;;;;5053307;28;20508;-56
2022/01/09 15:16:24;;;;;;;314.58;172.80;;;5.80;99.90;;;;;;5053134;28;20183;-48
2022/01/09 15:18:50;;;;;;;364.83;188.02;;;5.60;99.90;;;;;;5053646;28;20017;-53
2022/01/09 15:21:15;;;;;;;349.60;170.90;;;5.50;99.90;;;;;;5053209;28;20356;-63
2022/01/09 15:23:44;;;;;;;300.65;146.82;;;5.60;99.90;;;;;;5053365;28;20060;-62
2022/01/09 15:26:14;;;;;;;203.30;103.93;;;5.60;99.90;;;;;;5053285;28;20378;-62
2022/01/09 15:28:41;;;;;;;173.93;84.97;;;5.80;98.70;;;;;;5052944;28;20033;-46
2022/01/09 15:31:08;;;;;;;137.30;70.85;;;5.80;98.10;;;;;;5053515;28;20484;-58
2022/01/09 15:33:34;;;;;;;119.90;62.45;;;5.70;97.00;;;;;;5053338;28;20021;-63
2022/01/09 15:36:00;;;;;;;139.80;69.35;;;5.90;96.30;;;;;;5052733;28;20060;-55
2022/01/09 15:38:27;;;;;;;196.48;105.55;;;6.00;96.10;;;;;;5053142;28;20071;-56
2022/01/09 15:40:54;;;;;;;188.90;102.30;;;5.90;97.90;;;;;;5053249;28;20036;-53
2022/01/09 15:43:19;;;;;;;190.73;103.75;;;5.60;99.90;;;;;;5052851;28;20014;-57
2022/01/09 15:45:45;;;;;;;197.43;110.75;;;5.50;99.90;;;;;;5053194;28;20021;-61
2022/01/09 15:48:11;;;;;;;145.93;81.38;;;5.40;99.90;;;;;;5053318;28;20048;-50
2022/01/09 15:50:37;;;;;;;163.60;84.88;;;5.40;99.70;;;;;;5053059;28;20048;-50
2022/01/09 15:53:03;;;;;;;196.07;103.03;;;5.30;99.90;;;;;;5053146;28;20029;-51
2022/01/09 15:55:29;;;;;;;221.38;115.85;;;5.10;99.90;;;;;;5052955;28;20017;-58
2022/01/09 15:57:59;;;;;;;227.82;115.82;;;4.80;99.90;;;;;;5054440;28;20518;-49
2022/01/09 16:00:25;;;;;;;253.80;131.25;;;4.60;99.90;;;;;;5056931;28;20079;-60
2022/01/09 16:02:52;;;;;;;228.13;112.03;;;4.50;99.90;;;;;;5057124;28;20475;-53
2022/01/09 16:05:18;;;;;;;249.38;114.05;;;4.60;99.90;;;;;;5056870;28;20025;-57
2022/01/09 16:07:43;;;;;;;270.55;120.70;;;4.60;99.90;;;;;;5056997;28;20074;-54
2022/01/09 16:10:09;;;;;;;254.02;117.43;;;4.60;99.90;;;;;;5056810;28;20479;-54
2022/01/09 16:12:38;;;;;;;206.07;95.25;;;4.60;99.90;;;;;;5056987;28;20025;-55
2022/01/09 16:15:06;;;;;;;171.50;83.50;;;4.70;99.90;;;;;;5056559;28;20029;-45
2022/01/09 16:17:32;;;;;;;146.15;69.10;;;4.80;99.90;;;;;;5056570;28;20024;-62
2022/01/09 16:19:58;;;;;;;129.07;58.28;;;4.80;99.90;;;;;;5056880;28;20071;-54
2022/01/09 16:22:24;;;;;;;98.28;49.10;;;4.90;99.90;;;;;;5056806;28;20426;-62
2022/01/09 16:24:50;;;;;;;120.30;56.70;;;4.80;99.90;;;;;;5056540;28;20021;-55
2022/01/09 16:27:16;;;;;;;107.88;54.15;;;4.80;99.90;;;;;;5056498;28;20029;-57
2022/01/09 16:29:41;;;;;;;108.05;54.55;;;4.60;99.90;;;;;;5056630;28;20120;-59
2022/01/09 16:32:07;;;;;;;90.72;46.25;;;4.60;99.90;;;;;;5056554;28;20416;-54
2022/01/09 16:34:33;;;;;;;97.00;47.63;;;4.70;99.90;;;;;;5056589;28;20434;-60
2022/01/09 16:36:59;;;;;;;116.63;54.80;;;4.90;99.90;;;;;;5055884;28;20041;-60
2022/01/09 16:39:28;;;;;;;101.22;50.75;;;4.90;99.90;;;;;;5056219;28;20489;-54
2022/01/09 16:41:54;;;;;;;105.70;52.83;;;4.90;99.80;;;;;;5056253;28;20053;-50
2022/01/09 16:44:20;;;;;;;102.97;51.42;;;5.00;99.90;;;;;;5056120;28;20021;-57
2022/01/09 16:46:46;;;;;;;105.00;54.20;;;4.90;99.90;;;;;;5056385;28;20537;-64
2022/01/09 16:49:12;;;;;;;101.43;50.83;;;4.90;99.90;;;;;;5056055;28;20021;-54
2022/01/09 16:51:38;;;;;;;95.00;48.75;;;4.80;99.90;;;;;;5056131;28;20474;-56
2022/01/09 16:54:04;;;;;;;99.65;51.65;;;4.70;99.90;;;;;;5055949;28;20386;-55
2022/01/09 16:56:30;;;;;;;87.68;46.35;;;4.60;99.90;;;;;;5055679;28;20033;-58
2022/01/09 16:58:59;;;;;;;91.35;48.88;;;4.60;99.90;;;;;;5056312;28;20044;-60
2022/01/09 17:01:25;;;;;;;97.63;48.20;;;4.60;99.90;;;;;;5055799;28;20112;-53
2022/01/09 17:03:51;;;;;;;84.43;46.10;;;4.60;99.90;;;;;;5055897;28;20032;-56
2022/01/09 17:06:18;;;;;;;98.45;49.70;;;4.50;99.90;;;;;;5055787;28;20395;-59
2022/01/09 17:08:44;;;;;;;87.57;47.47;;;4.70;99.90;;;;;;5055145;28;20032;-48
2022/01/09 17:11:13;;;;;;;90.25;47.78;;;4.60;99.90;;;;;;5055615;28;20044;-62
2022/01/09 17:13:39;;;;;;;95.55;51.00;;;4.60;99.90;;;;;;5055633;28;20023;-58
2022/01/09 17:16:05;;;;;;;100.35;51.35;;;4.50;99.90;;;;;;5055415;28;20033;-52
2022/01/09 17:18:32;;;;;;;90.03;49.80;;;4.60;99.90;;;;;;5055651;28;20032;-67
2022/01/09 17:20:58;;;;;;;84.88;46.60;;;4.60;99.90;;;;;;5055606;28;20048;-59
2022/01/09 17:23:25;;;;;;;74.30;40.53;;;4.70;99.90;;;;;;5055376;28;20108;-55
2022/01/09 17:25:52;;;;;;;61.50;35.63;;;4.70;99.90;;;;;;5055315;28;20387;-60
2022/01/09 17:28:19;;;;;;;60.83;33.75;;;4.80;99.90;;;;;;5055645;28;20025;-66
2022/01/09 17:30:44;;;;;;;84.40;43.58;;;4.80;99.90;;;;;;5055216;28;20088;-48
2022/01/09 17:33:10;;;;;;;73.07;39.00;;;4.90;99.30;;;;;;5055240;28;20032;-59
2022/01/09 17:35:36;;;;;;;89.60;48.53;;;4.90;99.90;;;;;;5055017;28;20402;-55
2022/01/09 17:38:06;;;;;;;78.05;41.28;;;5.00;99.60;;;;;;5055071;28;20037;-53
2022/01/09 17:40:32;;;;;;;86.07;44.75;;;4.90;99.90;;;;;;5054949;28;20067;-51
2022/01/09 17:42:59;;;;;;;102.55;50.88;;;5.00;99.90;;;;;;5055388;28;20025;-59
2022/01/09 17:45:25;;;;;;;82.72;44.78;;;5.00;99.60;;;;;;5054858;28;20540;-54
2022/01/09 17:47:51;;;;;;;92.40;47.10;;;5.10;99.80;;;;;;5055031;28;20051;-64
2022/01/09 17:50:17;;;;;;;77.38;40.85;;;5.10;98.90;;;;;;5055124;28;20094;-61
2022/01/09 17:52:43;;;;;;;84.30;43.47;;;5.20;98.30;;;;;;5055054;28;20029;-57
2022/01/09 17:55:10;;;;;;;109.57;54.30;;;5.30;98.50;;;;;;5054589;28;20561;-49
2022/01/09 17:57:37;;;;;;;102.70;52.13;;;5.30;97.90;;;;;;5054855;28;20142;-59
2022/01/09 18:00:07;;;;;;;97.95;49.53;;;5.30;98.50;;;;;;5054763;28;20028;-55
2022/01/09 18:02:33;;;;;;;120.03;59.28;;;5.40;98.60;;;;;;5054721;28;20025;-62
2022/01/09 18:04:59;;;;;;;129.45;65.47;;;5.50;97.60;;;;;;5054841;28;20099;-60
2022/01/09 18:07:25;;;;;;;151.10;72.70;;;5.40;97.80;;;;;;5054584;28;20021;-52
2022/01/09 18:09:51;;;;;;;149.23;69.65;;;5.30;98.60;;;;;;5054245;28;20021;-57
2022/01/09 18:12:16;;;;;;;135.93;68.15;;;5.20;98.90;;;;;;5054449;28;20017;-58
2022/01/09 18:14:43;;;;;;;136.50;70.32;;;5.10;98.50;;;;;;5054471;28;20028;-52
2022/01/09 18:17:09;;;;;;;142.15;73.85;;;5.10;99.10;;;;;;5054246;28;20471;-57
2022/01/09 18:19:35;;;;;;;128.23;66.28;;;5.00;99.50;;;;;;5054170;28;20033;-56
2022/01/09 18:22:01;;;;;;;171.85;89.30;;;5.00;99.90;;;;;;5053940;28;20122;-56
2022/01/09 18:24:26;;;;;;;148.52;74.40;;;5.10;99.70;;;;;;5054041;28;20074;-51
2022/01/09 18:26:52;;;;;;;181.40;85.65;;;5.00;99.10;;;;;;5054166;28;20021;-60
2022/01/09 18:29:21;;;;;;;140.23;68.57;;;4.70;99.90;;;;;;5054227;28;20100;-50
2022/01/09 18:31:48;;;;;;;128.93;63.30;;;4.60;99.90;;;;;;5054314;28;20368;-50
2022/01/09 18:34:14;;;;;;;106.25;55.05;;;4.70;99.90;;;;;;5054051;28;20021;-52
2022/01/09 18:36:40;;;;;;;122.18;55.17;;;4.80;99.90;;;;;;5053545;28;20064;-62
2022/01/09 18:39:09;;;;;;;118.05;57.45;;;4.90;99.90;;;;;;5053823;28;20474;-58
2022/01/09 18:41:35;;;;;;;116.57;57.65;;;5.00;99.90;;;;;;5053881;28;20116;-54
2022/01/09 18:44:01;;;;;;;110.10;52.03;;;5.10;99.80;;;;;;5054189;28;20378;-50
2022/01/09 18:46:27;;;;;;;164.13;75.57;;;5.10;99.00;;;;;;5053806;28;20039;-56
2022/01/09 18:48:53;;;;;;;255.23;122.97;;;5.10;98.80;;;;;;5054041;28;20041;-55
2022/01/09 18:51:21;;;;;;;176.15;86.25;;;4.90;99.90;;;;;;5053473;28;20483;-48
2022/01/09 18:53:47;;;;;;;159.95;78.97;;;4.90;99.90;;;;;;5053686;28;20383;-57
2022/01/09 18:56:16;;;;;;;164.13;79.72;;;4.90;99.90;;;;;;5053850;28;20025;-54
2022/01/09 18:58:43;;;;;;;151.25;75.53;;;5.00;99.90;;;;;;5053962;28;20394;-60
2022/01/09 19:01:09;;;;;;;130.35;65.88;;;5.00;99.90;;;;;;5052352;28;20394;-52
2022/01/09 19:03:35;;;;;;;135.32;68.88;;;5.10;98.40;;;;;;5053752;28;20017;-58
2022/01/09 19:06:02;;;;;;;115.35;60.90;;;5.00;98.70;;;;;;5053298;28;20039;-57
2022/01/09 19:08:27;;;;;;;101.85;55.28;;;5.00;99.90;;;;;;5053500;28;20029;-63
2022/01/09 19:10:53;;;;;;;152.05;72.00;;;5.00;99.90;;;;;;5053408;28;20025;-61
2022/01/09 19:13:21;;;;;;;132.70;67.72;;;5.00;99.50;;;;;;5053093;28;20036;-61
2022/01/09 19:15:47;;;;;;;119.28;60.00;;;4.90;98.40;;;;;;5053088;28;20036;-51
2022/01/09 19:18:13;;;;;;;136.02;68.55;;;4.90;99.30;;;;;;5053272;28;20049;-55
2022/01/09 19:20:39;;;;;;;173.15;86.28;;;4.90;99.20;;;;;;5053157;28;20052;-58
2022/01/09 19:23:05;;;;;;;208.52;103.00;;;4.90;99.50;;;;;;5053225;28;20021;-49
2022/01/09 19:25:33;;;;;;;155.32;77.25;;;4.70;99.90;;;;;;5053162;28;20025;-63
2022/01/09 19:27:59;;;;;;;135.05;70.43;;;4.50;99.90;;;;;;5053482;28;20017;-54
2022/01/09 19:30:26;;;;;;;183.48;92.90;;;4.40;99.90;;;;;;5053474;28;20025;-51
2022/01/09 19:32:52;;;;;;;177.07;85.03;;;4.30;99.90;;;;;;5052957;28;20018;-52
2022/01/09 19:35:18;;;;;;;143.52;72.82;;;4.40;99.90;;;;;;5052733;28;20037;-60
2022/01/09 19:37:44;;;;;;;134.90;64.63;;;4.40;99.90;;;;;;5053078;28;20033;-60
2022/01/09 19:40:10;;;;;;;111.63;59.08;;;4.60;99.90;;;;;;5052931;28;20035;-54
2022/01/09 19:42:36;;;;;;;111.47;58.83;;;4.60;99.90;;;;;;5053274;28;20021;-61
2022/01/09 19:45:03;;;;;;;108.97;55.42;;;4.70;99.90;;;;;;5053264;28;20132;-65
2022/01/09 19:47:30;;;;;;;88.65;48.42;;;4.60;99.90;;;;;;5052919;28;20051;-59
2022/01/09 19:49:56;;;;;;;75.82;42.67;;;4.50;99.90;;;;;;5052711;28;20367;-58
2022/01/09 19:52:23;;;;;;;86.22;43.72;;;4.40;99.90;;;;;;5052915;28;20035;-54
2022/01/09 19:54:49;;;;;;;94.00;46.22;;;4.50;99.90;;;;;;5052906;28;20109;-60
2022/01/09 19:57:17;;;;;;;101.00;50.33;;;4.50;99.90;;;;;;5053025;28;20550;-55
2022/01/09 19:59:43;;;;;;;86.88;41.20;;;4.60;99.90;;;;;;5052931;28;20056;-56
2022/01/09 20:02:11;;;;;;;97.22;49.83;;;4.70;99.90;;;;;;5052741;28;20025;-65
2022/01/09 20:04:37;;;;;;;91.40;46.60;;;4.60;99.90;;;;;;5052575;28;20063;-54
2022/01/09 20:07:04;;;;;;;122.10;55.78;;;4.60;99.90;;;;;;5052981;28;20024;-54
2022/01/09 20:09:29;;;;;;;100.50;49.33;;;4.50;99.90;;;;;;5052859;28;20021;-62
2022/01/09 20:11:55;;;;;;;143.57;67.97;;;4.40;99.90;;;;;;5052707;28;20059;-61
2022/01/09 20:14:23;;;;;;;102.40;52.10;;;4.30;99.90;;;;;;5052726;28;20033;-58